METAR* REPORTS - Stations within 60 miles

(*Meteorological Terminal Aviation Routine weather report)

 

KRDG - Reading, Pennsylvania, USA
Distance from station: SE 19mi, 31km
Updated: Thu, 23-Jan-2020 10:54am EST
Haze, Clear
Haze, Clear
 Wind from calm
Wind: Calm
Temperature: 32°F , 0°C
Dew Point: 25°F , -4°C
Humidity: 75%
Barometer: 30.41 inHg , 1029.8 hPa
Summary: Haze
Clouds: Clear
Visibility: 6 miles , 10 km
2020/01/23 15:54 KRDG 231554Z 00000KT 6SM HZ CLR 00/M04 A3041 RMK AO2 SLP308 T00001039
KLNS - Lancaster, Pennsylvania, USA
Distance from station: S 33mi, 53km
Updated: Thu, 23-Jan-2020 10:53am EST
Haze, Clear
Haze, Clear
 Wind from calm
Wind: Calm
Temperature: 32°F , 0°C
Dew Point: 25°F , -4°C
Humidity: 75%
Barometer: 30.42 inHg , 1030.1 hPa
Summary: Haze
Clouds: Clear
Visibility: 5 miles , 8 km
2020/01/23 15:53 KLNS 231553Z 00000KT 5SM HZ CLR 00/M04 A3042 RMK AO2 SLP306 T00001044
 
KSEG - Selinsgrove, Pennsylvania, USA
Distance from station: WNW 39mi, 62km
Updated: Thu, 23-Jan-2020 10:53am EST
Haze, Clear
Haze, Clear
 Wind from calm
Wind: Calm
Temperature: 25°F , -4°C
Dew Point: 19°F , -7°C
Humidity: 80%
Barometer: 30.42 inHg , 1030.1 hPa
Summary: Haze
Clouds: Clear
Visibility: 6 miles , 10 km
2020/01/23 15:53 KSEG 231553Z AUTO 00000KT 6SM HZ CLR M04/M07 A3042 RMK AO2 SLP307 T10391067
KABE - Allentown, Pennsylvania, USA
Distance from station: E 39mi, 63km
Updated: Thu, 23-Jan-2020 10:51am EST
Clear
Clear
 Wind from calm
Wind: Calm
Temperature: 34°F , 1°C
Dew Point: 19°F , -7°C
Humidity: 56%
Barometer: 30.42 inHg , 1030.1 hPa
Clouds: Clear
Visibility: 8 miles , 13 km
2020/01/23 15:51 KABE 231551Z AUTO 00000KT 8SM CLR 01/M07 A3042 RMK AO2 SLP305 T00111067
 
KMDT - Middletown, Pennsylvania, USA
Distance from station: SW 40mi, 65km
Updated: Thu, 23-Jan-2020 10:56am EST
Overcast
Overcast
 Wind from calm
Wind: Calm
Temperature: 27°F , -3°C
Dew Point: 23°F , -5°C
Humidity: 86%
Barometer: 30.42 inHg , 1030.1 hPa
Clouds: Overcast
Visibility: 10 miles , 16 km
Cloud details: Overcast 20000 ft
2020/01/23 15:56 KMDT 231556Z 00000KT 10SM OVC200 M03/M05 A3042 RMK AO2 SLP305 T10331050 PNO $
KPTW - Pottstown, Pennsylvania, USA
Distance from station: SE 42mi, 67km
Updated: Thu, 23-Jan-2020 10:54am EST
Haze, Clear
Haze, Clear
 Wind from calm
Wind: Calm
Temperature: 34°F , 1°C
Dew Point: 21°F , -6°C
Humidity: 60%
Barometer: 30.44 inHg , 1030.8 hPa
Summary: Haze
Clouds: Clear
Visibility: 6 miles , 10 km
2020/01/23 15:54 KPTW 231554Z AUTO 00000KT 6SM HZ CLR 01/M06 A3044 RMK AO2 SLP309 T00061061
 
KCXY - Harrisburg, Pennsylvania, USA
Distance from station: SW 43mi, 69km
Updated: Thu, 23-Jan-2020 10:56am EST
Clear
Clear
 Wind from ESE
Wind: ESE 3 mph , 6 km/h
Temperature: 32°F , 0°C
Dew Point: 21°F , -6°C
Humidity: 64%
Barometer: 30.42 inHg , 1030.1 hPa
Clouds: Clear
Visibility: 7 miles , 11 km
2020/01/23 15:56 KCXY 231556Z 11003KT 7SM CLR 00/M06 A3042 RMK AO2 SLP306 T00001061
KUKT - Quakertown Arp, Pennsylvania, USA
Distance from station: ESE 44mi, 70km
Updated: Thu, 23-Jan-2020 11:15am EST
Clear
Clear
 Wind from calm
Wind: Calm
Temperature: 37°F , 3°C
Dew Point: 21°F , -6°C
Humidity: 52%
Barometer: 30.41 inHg , 1029.8 hPa
Clouds: Clear
Visibility: 10 miles , 16 km
2020/01/23 16:15 KUKT 231615Z AUTO 00000KT 10SM CLR 03/M06 A3041 RMK A01
 
KMQS - Coatesville, Pennsylvania, USA
Distance from station: SSE 45mi, 72km
Updated: Thu, 23-Jan-2020 11:15am EST
Clear
Clear
 Wind from calm
Wind: Calm
Temperature: 39°F , 4°C
Dew Point: 18°F , -8°C
Humidity: 42%
Barometer: 30.41 inHg , 1029.8 hPa
Clouds: Clear
Visibility: 10 miles , 16 km
2020/01/23 16:15 KMQS 231615Z AUTO 00000KT 10SM CLR 04/M08 A3041 RMK AO2
KMPO - Mt. Pocono, Pennsylvania, USA
Distance from station: NE 57mi, 92km
Updated: Thu, 23-Jan-2020 10:53am EST
Clear
Clear
 Wind from W
Wind: W 7 mph , 11 km/h
Temperature: 34°F , 1°C
Wind Chill: 28°F , -2°C
Dew Point: 7°F , -14°C
Humidity: 32%
Barometer: 30.33 inHg , 1027.1 hPa
Clouds: Clear
Visibility: 10 miles , 16 km
2020/01/23 15:53 KMPO 231553Z AUTO 26006KT 10SM CLR 01/M14 A3033 RMK AO2 SLP298 T00111139
 
KAVP - Avoca/Wilkes B., Pennsylvania, USA
Distance from station: NNE 58mi, 93km
Updated: Thu, 23-Jan-2020 10:54am EST
Clear
Clear
 Wind from calm
Wind: Calm
Temperature: 30°F , -1°C
Dew Point: 18°F , -8°C
Humidity: 59%
Barometer: 30.38 inHg , 1028.8 hPa
Clouds: Clear
Visibility: 9 miles , 14 km
2020/01/23 15:54 KAVP 231554Z 00000KT 9SM CLR M01/M08 A3038 RMK AO2 SLP299 T10061078
KTHV - York, Pennsylvania, USA
Distance from station: SW 59mi, 94km
Updated: Thu, 23-Jan-2020 10:53am EST
Haze, Clear
Haze, Clear
 Wind from calm
Wind: Calm
Temperature: 32°F , 0°C
Dew Point: 21°F , -6°C
Humidity: 64%
Barometer: 30.40 inHg , 1029.5 hPa
Summary: Haze
Clouds: Clear
Visibility: 5 miles , 8 km
2020/01/23 15:53 KTHV 231553Z AUTO 00000KT 5SM HZ CLR 00/M06 A3040 RMK AO2 SLP305 T00001056
 
KDYL - Doylestown, Pennsylvania, USA
Distance from station: ESE 59mi, 95km
Updated: Thu, 23-Jan-2020 10:54am EST
Clear
Clear
 Wind from varies
Wind: varies 3 mph , 6 km/h
Temperature: 37°F , 3°C
Dew Point: 19°F , -7°C
Humidity: 48%
Barometer: 30.42 inHg , 1030.1 hPa
Clouds: Clear
Visibility: 10 miles , 16 km
2020/01/23 15:54 KDYL 231554Z AUTO VRB03KT 10SM CLR 03/M07 A3042 RMK AO2 SLP309 T00331067
KIPT - Williamsport, Pennsylvania, USA
Distance from station: NW 60mi, 96km
Updated: Thu, 23-Jan-2020 10:54am EST
Clear
Clear
 Wind from calm
Wind: Calm
Temperature: 21°F , -6°C
Dew Point: 18°F , -8°C
Humidity: 86%
Barometer: 30.41 inHg , 1029.8 hPa
Clouds: Clear
Visibility: 10 miles , 16 km
2020/01/23 15:54 KIPT 231554Z 00000KT 10SM CLR M06/M08 A3041 RMK AO2 SLP307 T10561083